Time;durP1;ratioP1;P1;durP2;ratioP2;P2;SDS_P1;SDS_P2;PMS_P1;PMS_P2;Temp;Humidity;BMP_temperature;BMP_pressure;BME280_temperature;BME280_humidity;BME280_pressure;Samples;Min_cycle;Max_cycle;Signal;HPM_P1;HPM_P2
2022/11/21 00:00:29;;;;;;;14.57;9.48;;;1.00;99.90;;;;;;5038571;28;20235;-62
2022/11/21 00:02:58;;;;;;;14.93;9.35;;;1.00;99.90;;;;;;5036075;28;20199;-62
2022/11/21 00:05:25;;;;;;;13.75;9.45;;;1.00;99.90;;;;;;5036698;28;20211;-61
2022/11/21 00:07:52;;;;;;;11.25;8.98;;;1.00;99.90;;;;;;5035372;28;20674;-60
2022/11/21 00:10:18;;;;;;;15.30;9.02;;;1.00;99.90;;;;;;5035211;28;20197;-62
2022/11/21 00:12:45;;;;;;;15.13;10.57;;;1.00;99.90;;;;;;5035156;28;20213;-61
2022/11/21 00:15:13;;;;;;;13.43;9.35;;;1.10;99.90;;;;;;5036267;28;20641;-61
2022/11/21 00:17:40;;;;;;;16.05;10.63;;;1.10;99.90;;;;;;5035957;28;20213;-61
2022/11/21 00:20:08;;;;;;;16.85;11.15;;;1.10;99.90;;;;;;5037708;28;20289;-61
2022/11/21 00:22:34;;;;;;;16.65;10.95;;;1.10;99.90;;;;;;5035401;28;20581;-62
2022/11/21 00:25:01;;;;;;;14.27;9.90;;;1.10;99.90;;;;;;5035302;28;20203;-61
2022/11/21 00:27:28;;;;;;;14.65;11.50;;;1.10;99.90;;;;;;5039630;28;20202;-62
2022/11/21 00:29:54;;;;;;;14.68;10.70;;;1.10;99.90;;;;;;5039176;28;20230;-61
2022/11/21 00:32:23;;;;;;;15.95;10.45;;;1.10;99.90;;;;;;5038610;28;20206;-61
2022/11/21 00:34:49;;;;;;;14.63;8.88;;;1.10;99.90;;;;;;5038233;28;20225;-61
2022/11/21 00:37:16;;;;;;;14.80;10.07;;;1.10;99.90;;;;;;5038111;28;20198;-61
2022/11/21 00:39:43;;;;;;;20.92;12.85;;;1.10;99.90;;;;;;5038048;28;20226;-61
2022/11/21 00:42:09;;;;;;;17.95;12.00;;;1.10;99.90;;;;;;5039305;28;20209;-61
2022/11/21 00:44:36;;;;;;;22.20;13.77;;;1.10;99.90;;;;;;5041272;28;20201;-61
2022/11/21 00:47:03;;;;;;;15.98;11.20;;;1.10;99.90;;;;;;5041629;28;20552;-61
2022/11/21 00:49:31;;;;;;;13.50;9.38;;;1.10;99.90;;;;;;5044209;28;20226;-61
2022/11/21 00:51:58;;;;;;;14.60;9.98;;;1.00;99.90;;;;;;5048193;28;20213;-60
2022/11/21 00:54:25;;;;;;;12.65;9.80;;;1.00;99.90;;;;;;5046533;28;20215;-61
2022/11/21 00:56:51;;;;;;;11.40;8.15;;;1.00;99.90;;;;;;5045276;28;20206;-60
2022/11/21 00:59:19;;;;;;;13.27;9.68;;;1.00;99.90;;;;;;5045291;28;20219;-61
2022/11/21 01:01:45;;;;;;;13.30;10.55;;;1.00;99.90;;;;;;5042093;28;20217;-61
2022/11/21 01:04:12;;;;;;;14.90;9.25;;;1.00;99.90;;;;;;5041667;28;20226;-61
2022/11/21 01:06:40;;;;;;;12.52;9.88;;;1.00;99.90;;;;;;5041240;28;20206;-61
2022/11/21 01:09:07;;;;;;;13.27;9.93;;;1.00;99.90;;;;;;5038904;28;20222;-61
2022/11/21 01:11:34;;;;;;;14.82;10.02;;;1.00;99.90;;;;;;5039444;28;20667;-62
2022/11/21 01:14:00;;;;;;;15.50;10.98;;;1.00;99.90;;;;;;5040521;28;20206;-61
2022/11/21 01:16:28;;;;;;;16.60;11.30;;;1.00;99.90;;;;;;5037753;28;20202;-61
2022/11/21 01:18:56;;;;;;;13.60;9.80;;;1.00;99.90;;;;;;5039608;28;20230;-62
2022/11/21 01:21:24;;;;;;;14.88;9.07;;;1.00;99.90;;;;;;5038168;28;20205;-62
2022/11/21 01:23:55;;;;;;;14.75;10.40;;;1.00;99.90;;;;;;5039584;28;20203;-61
2022/11/21 01:26:24;;;;;;;18.90;11.20;;;1.00;99.90;;;;;;5040533;28;20237;-61
2022/11/21 01:28:51;;;;;;;11.07;9.23;;;1.00;99.90;;;;;;5040719;28;20226;-61
2022/11/21 01:31:20;;;;;;;12.45;9.23;;;1.00;99.90;;;;;;5040386;28;20198;-61
2022/11/21 01:33:48;;;;;;;14.43;10.40;;;1.00;99.90;;;;;;5038555;28;20209;-60
2022/11/21 01:36:17;;;;;;;13.60;9.82;;;1.00;99.90;;;;;;5038681;28;20233;-60
2022/11/21 01:38:45;;;;;;;13.02;9.40;;;1.00;99.90;;;;;;5038192;28;20219;-62
2022/11/21 01:41:15;;;;;;;12.48;9.55;;;1.00;99.90;;;;;;5037466;28;20209;-60
2022/11/21 01:43:43;;;;;;;14.88;9.52;;;1.00;99.90;;;;;;5037560;28;20187;-60
2022/11/21 01:46:13;;;;;;;11.18;8.93;;;1.00;99.90;;;;;;5036725;28;20547;-61
2022/11/21 01:48:44;;;;;;;13.02;9.73;;;1.00;99.90;;;;;;5036468;28;20226;-62
2022/11/21 01:51:16;;;;;;;13.18;10.13;;;1.00;99.90;;;;;;5036953;28;20186;-62
2022/11/21 01:53:47;;;;;;;10.65;8.93;;;1.00;99.90;;;;;;5036150;28;20194;-61
2022/11/21 01:56:15;;;;;;;15.48;10.05;;;1.00;99.90;;;;;;5036147;28;20527;-63
2022/11/21 01:58:44;;;;;;;15.88;9.05;;;1.00;99.90;;;;;;5036181;28;20230;-61
2022/11/21 02:01:10;;;;;;;15.05;9.57;;;1.00;99.90;;;;;;5038477;28;20202;-61
2022/11/21 02:03:39;;;;;;;15.38;10.25;;;1.00;99.90;;;;;;5037440;28;20674;-62
2022/11/21 02:06:09;;;;;;;15.82;11.52;;;0.90;99.90;;;;;;5037384;28;20198;-62
2022/11/21 02:08:37;;;;;;;12.13;8.95;;;0.90;99.90;;;;;;5036492;28;20218;-61
2022/11/21 02:11:12;;;;;;;16.25;11.20;;;0.80;99.90;;;;;;5037042;28;20572;-61
2022/11/21 02:13:40;;;;;;;15.35;10.30;;;0.70;99.90;;;;;;5037340;28;20186;-61
2022/11/21 02:16:07;;;;;;;14.48;10.43;;;0.50;99.90;;;;;;5037426;28;20231;-62
2022/11/21 02:18:34;;;;;;;16.60;10.60;;;0.40;99.90;;;;;;5036672;28;20219;-61
2022/11/21 02:21:09;;;;;;;16.33;11.70;;;0.30;99.90;;;;;;5035573;28;20198;-61
2022/11/21 02:23:44;;;;;;;18.27;10.52;;;0.20;99.90;;;;;;5035672;28;20197;-62
2022/11/21 02:26:13;;;;;;;16.02;11.93;;;0.10;99.90;;;;;;5036134;28;20182;-61
2022/11/21 02:28:39;;;;;;;15.70;11.63;;;0.00;99.90;;;;;;5036276;28;20234;-62
2022/11/21 02:31:06;;;;;;;18.65;12.20;;;0.00;99.90;;;;;;5035109;28;20198;-62
2022/11/21 02:33:34;;;;;;;18.95;12.38;;;-0.10;99.90;;;;;;5034913;28;20293;-62
2022/11/21 02:36:02;;;;;;;18.63;12.25;;;-0.10;99.90;;;;;;5034738;28;20402;-63
2022/11/21 02:38:32;;;;;;;20.05;12.75;;;-0.20;99.90;;;;;;5034637;28;20237;-62
2022/11/21 02:41:05;;;;;;;15.85;11.43;;;-0.20;99.90;;;;;;5035051;28;20217;-61
2022/11/21 02:43:37;;;;;;;18.17;12.85;;;-0.30;99.90;;;;;;5034852;28;20193;-61
2022/11/21 02:46:04;;;;;;;18.15;12.13;;;-0.30;99.90;;;;;;5036015;28;20191;-61
2022/11/21 02:48:31;;;;;;;17.40;12.48;;;-0.40;99.90;;;;;;5036407;28;20222;-60
2022/11/21 02:50:58;;;;;;;18.15;13.90;;;-0.40;99.90;;;;;;5035505;28;20206;-61
2022/11/21 02:53:24;;;;;;;21.92;13.63;;;-0.50;99.90;;;;;;5035671;28;20198;-62
2022/11/21 02:55:51;;;;;;;17.75;12.02;;;-0.50;99.90;;;;;;5035405;28;20226;-62
2022/11/21 02:58:18;;;;;;;18.85;13.00;;;-0.50;99.90;;;;;;5035038;28;20232;-61
2022/11/21 03:00:46;;;;;;;20.10;13.13;;;-0.60;99.90;;;;;;5036901;28;20212;-62
2022/11/21 03:03:13;;;;;;;22.02;14.02;;;-0.60;99.90;;;;;;5036418;28;20206;-62
2022/11/21 03:05:40;;;;;;;26.02;14.18;;;-0.60;99.90;;;;;;5036411;28;20256;-62
2022/11/21 03:08:07;;;;;;;20.60;13.45;;;-0.60;99.90;;;;;;5036357;28;20233;-62
2022/11/21 03:10:34;;;;;;;20.92;14.90;;;-0.70;99.90;;;;;;5035145;28;20212;-61
2022/11/21 03:13:01;;;;;;;21.67;14.93;;;-0.70;99.90;;;;;;5034572;28;20199;-62
2022/11/21 03:15:29;;;;;;;18.88;13.73;;;-0.80;99.90;;;;;;5034394;28;20222;-62
2022/11/21 03:17:57;;;;;;;22.73;14.00;;;-0.80;99.90;;;;;;5034092;28;20571;-62
2022/11/21 03:20:24;;;;;;;19.23;13.88;;;-0.90;99.90;;;;;;5034673;28;20237;-62
2022/11/21 03:22:52;;;;;;;21.80;14.75;;;-0.90;99.90;;;;;;5034580;28;20202;-61
2022/11/21 03:25:19;;;;;;;22.85;14.40;;;-0.90;99.90;;;;;;5034374;28;20198;-62
2022/11/21 03:27:46;;;;;;;19.75;13.45;;;-1.00;99.90;;;;;;5034262;28;20198;-62
2022/11/21 03:30:14;;;;;;;24.80;15.18;;;-1.00;99.90;;;;;;5034142;28;20186;-61
2022/11/21 03:32:40;;;;;;;24.00;15.02;;;-1.10;99.90;;;;;;5034092;28;20252;-63
2022/11/21 03:35:09;;;;;;;24.55;14.05;;;-1.10;99.90;;;;;;5033768;28;20230;-61
2022/11/21 03:37:36;;;;;;;23.33;15.93;;;-1.10;99.90;;;;;;5033848;28;20575;-62
2022/11/21 03:40:03;;;;;;;23.23;15.50;;;-1.10;99.90;;;;;;5033885;28;20226;-63
2022/11/21 03:42:29;;;;;;;22.65;16.15;;;-1.10;99.90;;;;;;5033840;28;20209;-61
2022/11/21 03:44:56;;;;;;;20.58;13.95;;;-1.20;99.90;;;;;;5034032;28;20203;-63
2022/11/21 03:47:24;;;;;;;21.13;15.48;;;-1.20;99.90;;;;;;5033765;28;20213;-62
2022/11/21 03:49:51;;;;;;;21.60;14.32;;;-1.20;99.90;;;;;;5033330;28;20732;-62
2022/11/21 03:52:19;;;;;;;29.25;16.65;;;-1.20;99.90;;;;;;5033223;28;20206;-62
2022/11/21 03:54:46;;;;;;;29.70;17.23;;;-1.20;99.90;;;;;;5033717;28;20199;-62
2022/11/21 03:57:13;;;;;;;30.17;17.45;;;-1.20;99.90;;;;;;5033308;28;20678;-62
2022/11/21 03:59:39;;;;;;;25.23;15.98;;;-1.30;99.90;;;;;;5033562;28;20222;-62
2022/11/21 04:02:06;;;;;;;22.77;14.90;;;-1.30;99.90;;;;;;5032981;28;20202;-62
2022/11/21 04:04:33;;;;;;;23.67;15.60;;;-1.20;99.90;;;;;;5033206;28;20202;-61
2022/11/21 04:06:59;;;;;;;23.98;17.00;;;-1.30;99.90;;;;;;5033191;28;20202;-63
2022/11/21 04:10:35;;;;;;;24.73;15.90;;;-1.30;99.90;;;;;;5090311;27;21077;-62
2022/11/21 04:13:02;;;;;;;24.45;16.65;;;-1.30;99.90;;;;;;5090826;28;20242;-63
2022/11/21 04:15:29;;;;;;;26.50;16.85;;;-1.30;99.90;;;;;;5091209;28;20207;-62
2022/11/21 04:17:55;;;;;;;26.50;16.83;;;-1.30;99.90;;;;;;5090870;28;20204;-61
2022/11/21 04:20:22;;;;;;;27.15;16.08;;;-1.40;99.90;;;;;;5090562;28;20668;-63
2022/11/21 04:22:49;;;;;;;25.42;16.65;;;-1.40;99.90;;;;;;5094632;28;20204;-61
2022/11/21 04:25:16;;;;;;;27.05;17.17;;;-1.40;99.90;;;;;;5090905;28;20211;-62
2022/11/21 04:27:44;;;;;;;23.23;16.38;;;-1.50;99.90;;;;;;5090369;28;20200;-62
2022/11/21 04:30:11;;;;;;;22.08;15.48;;;-1.50;99.90;;;;;;5090339;28;20695;-62
2022/11/21 04:32:38;;;;;;;27.90;16.92;;;-1.50;99.90;;;;;;5090953;28;20205;-61
2022/11/21 04:35:06;;;;;;;23.80;15.10;;;-1.60;99.90;;;;;;5090566;28;20705;-61
2022/11/21 04:37:32;;;;;;;22.90;16.27;;;-1.60;99.90;;;;;;5090347;28;20200;-62
2022/11/21 04:39:59;;;;;;;27.35;15.65;;;-1.60;99.90;;;;;;5090325;28;20220;-62
2022/11/21 04:42:26;;;;;;;25.30;16.55;;;-1.60;99.90;;;;;;5090495;28;20579;-62
2022/11/21 04:44:54;;;;;;;22.63;15.73;;;-1.60;99.90;;;;;;5090167;28;20201;-61
2022/11/21 04:47:21;;;;;;;22.25;15.85;;;-1.60;99.90;;;;;;5090642;28;20200;-61
2022/11/21 04:49:47;;;;;;;25.48;16.27;;;-1.70;99.90;;;;;;5091203;28;20304;-61
2022/11/21 04:52:14;;;;;;;24.98;15.93;;;-1.70;99.90;;;;;;5090979;28;20207;-60
2022/11/21 04:54:41;;;;;;;32.42;18.45;;;-1.70;99.90;;;;;;5090644;28;20228;-61
2022/11/21 04:57:08;;;;;;;26.95;16.63;;;-1.80;99.90;;;;;;5090762;28;20209;-59
2022/11/21 04:59:34;;;;;;;29.33;17.25;;;-1.80;99.90;;;;;;5090450;28;20217;-62
2022/11/21 05:02:04;;;;;;;32.08;18.90;;;-1.80;99.90;;;;;;5090932;28;20215;-62
2022/11/21 05:04:30;;;;;;;27.02;17.27;;;-1.80;99.90;;;;;;5082055;28;20212;-61
2022/11/21 05:06:57;;;;;;;27.67;17.20;;;-1.90;99.90;;;;;;5071860;28;20202;-62
2022/11/21 05:09:24;;;;;;;23.00;16.05;;;-1.90;99.90;;;;;;5072493;28;20232;-58
2022/11/21 05:14:35;;;;;;;25.23;16.00;;;-1.90;99.90;;;;;;5081164;28;20219;-61
2022/11/21 05:17:02;;;;;;;24.90;16.40;;;-1.90;99.90;;;;;;5085046;28;20193;-61
2022/11/21 05:19:30;;;;;;;27.10;15.50;;;-1.90;99.90;;;;;;5080948;28;20268;-61
2022/11/21 05:21:56;;;;;;;21.52;16.35;;;-1.90;99.90;;;;;;5071557;28;20197;-61
2022/11/21 05:24:23;;;;;;;27.00;18.27;;;-1.90;99.90;;;;;;5063112;28;20229;-61
2022/11/21 05:26:50;;;;;;;27.02;17.67;;;-1.90;99.90;;;;;;5078027;28;20201;-61
2022/11/21 05:29:16;;;;;;;27.77;18.50;;;-1.90;99.90;;;;;;5076911;28;20225;-62
2022/11/21 05:31:43;;;;;;;23.70;15.15;;;-1.90;99.90;;;;;;5076411;28;20691;-61
2022/11/21 05:34:10;;;;;;;27.42;17.45;;;-1.90;99.90;;;;;;5076770;28;20201;-62
2022/11/21 05:36:38;;;;;;;27.08;17.42;;;-1.90;99.90;;;;;;5073729;28;20209;-62
2022/11/21 05:39:05;;;;;;;21.65;15.93;;;-1.90;99.90;;;;;;5076214;28;20221;-62
2022/11/21 05:41:32;;;;;;;22.55;15.18;;;-1.90;99.90;;;;;;5076021;28;20201;-62
2022/11/21 05:43:58;;;;;;;25.02;15.65;;;-1.90;99.90;;;;;;5075869;28;20208;-62
2022/11/21 05:46:26;;;;;;;28.47;16.87;;;-2.00;99.90;;;;;;5076001;28;20193;-60
2022/11/21 05:48:54;;;;;;;20.70;14.60;;;-2.00;99.90;;;;;;5075458;28;20227;-64
2022/11/21 05:51:21;;;;;;;23.92;16.30;;;-2.00;99.90;;;;;;5062517;28;20193;-61
2022/11/21 05:53:49;;;;;;;27.65;17.33;;;-2.00;99.90;;;;;;5075691;28;20201;-61
2022/11/21 05:56:18;;;;;;;26.00;17.35;;;-2.10;99.90;;;;;;5065313;28;20198;-61
2022/11/21 05:58:45;;;;;;;23.13;15.38;;;-2.10;99.90;;;;;;5055782;28;20229;-62
2022/11/21 06:01:14;;;;;;;25.83;15.60;;;-2.10;99.90;;;;;;5055613;28;20201;-61
2022/11/21 06:03:41;;;;;;;25.02;16.63;;;-2.20;99.90;;;;;;5055475;28;20210;-61
2022/11/21 06:06:09;;;;;;;28.25;16.65;;;-2.20;99.90;;;;;;5055247;28;20209;-62
2022/11/21 06:08:38;;;;;;;28.95;17.25;;;-2.20;99.90;;;;;;5067227;28;20251;-62
2022/11/21 06:11:07;;;;;;;25.90;16.75;;;-2.20;99.90;;;;;;5074842;28;20177;-62
2022/11/21 06:13:35;;;;;;;26.95;16.30;;;-2.20;99.90;;;;;;5062072;28;20571;-62
2022/11/21 06:16:04;;;;;;;28.25;15.50;;;-2.20;99.90;;;;;;5071621;28;20603;-63
2022/11/21 06:18:33;;;;;;;24.02;15.77;;;-2.20;99.90;;;;;;5071443;28;20254;-62
2022/11/21 06:21:06;;;;;;;25.27;16.90;;;-2.20;99.90;;;;;;5055190;28;20201;-61
2022/11/21 06:23:34;;;;;;;32.75;17.20;;;-2.20;99.90;;;;;;5054401;28;20243;-61
2022/11/21 06:26:03;;;;;;;28.17;19.27;;;-2.20;99.90;;;;;;5054855;28;20305;-61
2022/11/21 06:28:35;;;;;;;27.33;16.30;;;-2.20;99.90;;;;;;5055525;28;20226;-62
2022/11/21 06:31:04;;;;;;;29.90;17.25;;;-2.20;99.90;;;;;;5056442;28;20265;-62
2022/11/21 06:33:31;;;;;;;33.85;18.33;;;-2.20;99.90;;;;;;5053795;28;20209;-61
2022/11/21 06:36:01;;;;;;;29.23;18.20;;;-2.20;99.90;;;;;;5055705;28;20205;-62
2022/11/21 06:38:27;;;;;;;29.50;18.17;;;-2.20;99.90;;;;;;5055105;28;20221;-61
2022/11/21 06:40:54;;;;;;;31.25;17.90;;;-2.20;99.90;;;;;;5055568;28;20213;-61
2022/11/21 06:43:21;;;;;;;28.73;16.63;;;-2.20;99.90;;;;;;5054807;28;20696;-62
2022/11/21 06:45:49;;;;;;;25.40;16.40;;;-2.20;99.90;;;;;;5054775;28;20217;-61
2022/11/21 06:48:15;;;;;;;33.50;17.40;;;-2.20;99.90;;;;;;5054692;28;20697;-60
2022/11/21 06:50:42;;;;;;;29.13;15.88;;;-2.20;99.90;;;;;;5055286;28;20241;-62
2022/11/21 06:53:09;;;;;;;57.78;19.35;;;-2.30;99.90;;;;;;5070280;28;20209;-61
2022/11/21 06:55:36;;;;;;;40.53;16.80;;;-2.30;99.90;;;;;;5061513;28;20252;-61
2022/11/21 06:58:02;;;;;;;45.53;20.48;;;-2.30;99.90;;;;;;5055030;28;20233;-61
2022/11/21 07:00:29;;;;;;;30.60;18.10;;;-2.30;99.90;;;;;;5064367;28;20206;-62
2022/11/21 07:03:02;;;;;;;47.75;19.00;;;-2.30;99.90;;;;;;5053765;28;20202;-61
2022/11/21 07:05:29;;;;;;;67.10;21.13;;;-2.30;99.90;;;;;;5062599;28;20591;-61
2022/11/21 07:07:58;;;;;;;48.05;19.60;;;-2.30;99.90;;;;;;5054812;28;20208;-62
2022/11/21 07:10:25;;;;;;;66.05;21.67;;;-2.20;99.90;;;;;;5053642;28;20222;-62
2022/11/21 07:15:36;;;;;;;36.95;20.13;;;-2.20;99.90;;;;;;5054054;28;20606;-63
2022/11/21 07:18:04;;;;;;;44.92;22.63;;;-2.10;99.90;;;;;;5073598;28;20221;-61
2022/11/21 07:20:30;;;;;;;40.72;19.23;;;-2.10;99.90;;;;;;5074503;28;20201;-61
2022/11/21 07:22:57;;;;;;;40.70;21.95;;;-2.00;99.90;;;;;;5061582;28;20205;-63
2022/11/21 07:25:24;;;;;;;43.70;22.55;;;-1.90;99.90;;;;;;5054760;28;20212;-63
2022/11/21 07:27:50;;;;;;;48.08;22.13;;;-1.80;99.90;;;;;;5055881;28;20202;-64
2022/11/21 07:30:17;;;;;;;43.80;20.83;;;-1.70;99.90;;;;;;5053338;28;20713;-63
2022/11/21 07:32:44;;;;;;;43.85;20.45;;;-1.70;99.90;;;;;;5054065;28;20228;-64
2022/11/21 07:35:12;;;;;;;41.08;22.15;;;-1.60;99.90;;;;;;5053795;28;20692;-63
2022/11/21 07:37:40;;;;;;;43.25;21.63;;;-1.60;99.90;;;;;;5053970;28;20288;-61
2022/11/21 07:40:07;;;;;;;37.15;19.88;;;-1.60;99.90;;;;;;5053519;28;20194;-65
2022/11/21 07:42:34;;;;;;;46.97;22.15;;;-1.60;99.90;;;;;;5054041;28;20233;-64
2022/11/21 07:45:01;;;;;;;31.45;19.52;;;-1.60;99.90;;;;;;5053769;28;20209;-63
2022/11/21 07:47:27;;;;;;;43.47;19.63;;;-1.60;99.90;;;;;;5054246;28;20213;-64
2022/11/21 07:49:54;;;;;;;40.33;19.55;;;-1.60;99.90;;;;;;5053687;28;20233;-63
2022/11/21 07:52:22;;;;;;;31.92;19.55;;;-1.60;99.90;;;;;;5053798;28;20576;-64
2022/11/21 07:54:49;;;;;;;29.45;17.33;;;-1.60;99.90;;;;;;5053861;28;20235;-63
2022/11/21 07:57:15;;;;;;;31.20;17.80;;;-1.60;99.90;;;;;;5053961;28;20206;-63
2022/11/21 07:59:43;;;;;;;32.38;18.90;;;-1.50;99.90;;;;;;5056699;28;20225;-63
2022/11/21 08:02:16;;;;;;;32.38;18.35;;;-1.50;99.90;;;;;;5058340;28;20209;-65
2022/11/21 08:04:43;;;;;;;28.63;18.20;;;-1.50;99.90;;;;;;5062483;28;20261;-63
2022/11/21 08:07:10;;;;;;;27.50;17.67;;;-1.50;99.90;;;;;;5061285;28;20556;-63
2022/11/21 08:09:39;;;;;;;32.35;19.05;;;-1.50;99.90;;;;;;5058065;28;20226;-63
2022/11/21 08:12:06;;;;;;;24.23;16.63;;;-1.50;99.90;;;;;;5057567;28;20681;-63
2022/11/21 08:14:33;;;;;;;36.30;19.98;;;-1.40;99.90;;;;;;5057448;28;20208;-63
2022/11/21 08:17:00;;;;;;;29.02;17.90;;;-1.40;99.90;;;;;;5054971;28;20210;-62
2022/11/21 08:19:27;;;;;;;29.27;18.75;;;-1.40;99.90;;;;;;5055980;28;20221;-62
2022/11/21 08:21:54;;;;;;;27.10;16.50;;;-1.40;99.90;;;;;;5055960;28;20205;-63
2022/11/21 08:24:21;;;;;;;28.80;18.88;;;-1.30;99.90;;;;;;5056263;28;20202;-64
2022/11/21 08:26:49;;;;;;;26.92;17.55;;;-1.30;99.90;;;;;;5057431;28;20206;-64
2022/11/21 08:29:16;;;;;;;28.38;17.83;;;-1.20;99.90;;;;;;5064315;28;20631;-63
2022/11/21 08:31:44;;;;;;;26.52;17.10;;;-1.20;99.90;;;;;;5060414;28;20225;-63
2022/11/21 08:34:11;;;;;;;30.63;18.10;;;-1.10;99.90;;;;;;5062823;28;20202;-64
2022/11/21 08:36:38;;;;;;;30.85;19.40;;;-1.00;99.90;;;;;;5060043;28;20201;-63
2022/11/21 08:39:05;;;;;;;24.77;16.70;;;-0.90;99.90;;;;;;5061322;28;20678;-64
2022/11/21 08:44:18;;;;;;;26.83;17.55;;;-0.80;99.90;;;;;;5055202;28;20261;-62
2022/11/21 08:46:44;;;;;;;26.67;16.67;;;-0.70;99.90;;;;;;5056848;28;20205;-62
2022/11/21 08:49:11;;;;;;;29.30;17.67;;;-0.70;99.90;;;;;;5064008;28;20221;-62
2022/11/21 08:51:38;;;;;;;30.98;17.88;;;-0.60;99.90;;;;;;5060535;28;20225;-63
2022/11/21 08:54:04;;;;;;;31.45;20.05;;;-0.60;99.90;;;;;;5057634;28;20565;-62
2022/11/21 08:56:31;;;;;;;26.50;16.73;;;-0.50;99.90;;;;;;5057644;28;20208;-61
2022/11/21 08:58:58;;;;;;;25.77;16.08;;;-0.40;99.90;;;;;;5059109;28;20225;-62
2022/11/21 09:01:26;;;;;;;26.50;15.68;;;-0.30;99.90;;;;;;5057952;28;20194;-62
2022/11/21 09:03:53;;;;;;;24.23;16.30;;;-0.20;99.90;;;;;;5064723;28;20201;-64
2022/11/21 09:06:20;;;;;;;23.55;16.20;;;-0.10;99.90;;;;;;5064932;28;20212;-63
2022/11/21 09:08:46;;;;;;;22.25;15.55;;;0.00;99.90;;;;;;5069079;28;20619;-62
2022/11/21 09:11:13;;;;;;;20.05;13.77;;;0.10;99.90;;;;;;5068598;28;20202;-61
2022/11/21 09:13:40;;;;;;;18.63;13.10;;;0.20;99.90;;;;;;5064168;28;20201;-61
2022/11/21 09:19:07;;;;;;;23.17;14.57;;;0.40;99.90;;;;;;5026225;28;20717;-64
2022/11/21 09:21:33;;;;;;;16.15;12.02;;;0.50;99.90;;;;;;5024286;28;20202;-63
2022/11/21 09:24:00;;;;;;;17.38;11.43;;;0.60;99.90;;;;;;5037200;28;20208;-62
2022/11/21 09:26:27;;;;;;;19.38;12.00;;;0.60;99.90;;;;;;5069055;28;20190;-63
2022/11/21 09:28:54;;;;;;;16.80;11.45;;;0.70;99.90;;;;;;5066911;28;20213;-61
2022/11/21 09:31:21;;;;;;;15.93;11.50;;;0.80;99.90;;;;;;5067484;28;20241;-62
2022/11/21 09:33:47;;;;;;;11.48;9.48;;;0.90;99.90;;;;;;5068704;28;20662;-62
2022/11/21 09:36:15;;;;;;;18.58;12.52;;;1.00;99.90;;;;;;5066025;28;20196;-59
2022/11/21 09:38:42;;;;;;;17.42;12.07;;;1.10;99.90;;;;;;5051852;28;20236;-65
2022/11/21 09:44:12;;;;;;;21.17;14.38;;;1.30;99.90;;;;;;5061669;28;20647;-62
2022/11/21 09:46:46;;;;;;;18.60;14.93;;;1.30;99.90;;;;;;5054705;28;20190;-63
2022/11/21 09:49:14;;;;;;;16.10;11.93;;;1.30;99.90;;;;;;5061543;28;20623;-63
2022/11/21 09:51:45;;;;;;;16.02;11.63;;;1.40;99.90;;;;;;5059962;28;20221;-63
2022/11/21 09:54:18;;;;;;;16.02;12.15;;;1.50;99.90;;;;;;5061818;28;20543;-64
2022/11/21 09:56:46;;;;;;;18.52;12.73;;;1.60;99.90;;;;;;5062242;28;20670;-62
2022/11/21 09:59:29;;;;;;;17.52;11.60;;;1.60;99.90;;;;;;5063551;28;20217;-62
2022/11/21 10:01:56;;;;;;;17.13;12.10;;;1.70;99.90;;;;;;5074102;28;20197;-62
2022/11/21 10:04:23;;;;;;;15.23;11.80;;;1.70;99.90;;;;;;5074975;28;20224;-61
2022/11/21 10:07:01;;;;;;;18.20;11.77;;;1.80;99.90;;;;;;5056627;28;20206;-62
2022/11/21 10:09:39;;;;;;;16.65;11.70;;;1.70;99.90;;;;;;5067090;28;20256;-63
2022/11/21 10:12:36;;;;;;;13.95;10.48;;;1.70;99.90;;;;;;5075381;28;20201;-63
2022/11/21 10:15:14;;;;;;;15.15;10.60;;;1.80;99.90;;;;;;5072791;28;20204;-63
2022/11/21 10:17:53;;;;;;;13.45;11.13;;;1.80;99.90;;;;;;5086327;28;20196;-63
2022/11/21 10:20:33;;;;;;;16.20;10.88;;;1.90;99.90;;;;;;5079202;28;20185;-63
2022/11/21 10:23:23;;;;;;;16.98;9.90;;;1.90;99.90;;;;;;5098335;22;20193;-59
2022/11/21 10:25:56;;;;;;;16.13;10.88;;;2.00;99.90;;;;;;5057520;28;20209;-60
2022/11/21 10:28:30;;;;;;;12.88;10.00;;;2.00;99.90;;;;;;5057035;28;20189;-60
2022/11/21 10:30:58;;;;;;;14.77;9.65;;;2.10;99.90;;;;;;5056259;28;20214;-60
2022/11/21 10:33:31;;;;;;;16.45;11.60;;;2.00;99.90;;;;;;5055131;28;20225;-59
2022/11/21 10:36:01;;;;;;;17.60;11.73;;;2.00;99.90;;;;;;5054904;28;20602;-61
2022/11/21 10:38:29;;;;;;;17.10;12.85;;;1.90;99.90;;;;;;5055235;28;20202;-60
2022/11/21 10:46:55;;;;;;;18.48;11.63;;;2.00;99.90;;;;;;4978141;28;20204;-61
2022/11/21 10:49:22;;;;;;;19.42;12.30;;;2.10;99.90;;;;;;4987723;28;20201;-61
2022/11/21 10:51:56;;;;;;;20.23;12.52;;;2.10;99.90;;;;;;5054136;28;20202;-62
2022/11/21 10:54:33;;;;;;;17.15;12.25;;;2.20;99.90;;;;;;5054115;28;20570;-62
2022/11/21 10:57:10;;;;;;;17.73;11.43;;;2.30;99.90;;;;;;5053854;28;20583;-61
2022/11/21 10:59:37;;;;;;;22.05;13.18;;;2.30;99.90;;;;;;5053977;28;20197;-61
2022/11/21 11:02:23;;;;;;;17.48;12.23;;;2.40;99.90;;;;;;5053389;28;20562;-62
2022/11/21 11:05:20;;;;;;;18.13;12.38;;;2.40;99.90;;;;;;5053355;28;20705;-61
2022/11/21 11:08:00;;;;;;;13.40;10.40;;;2.40;99.90;;;;;;5053630;28;20186;-61
2022/11/21 11:10:29;;;;;;;16.52;11.35;;;2.40;99.90;;;;;;5053148;28;20590;-62
2022/11/21 11:15:54;;;;;;;17.35;11.35;;;2.30;99.90;;;;;;5052775;28;20177;-62
2022/11/21 11:18:23;;;;;;;18.60;12.05;;;2.20;99.90;;;;;;5053884;28;20221;-58
2022/11/21 11:20:50;;;;;;;16.98;10.55;;;2.20;99.90;;;;;;5053321;28;20212;-59
2022/11/21 11:23:27;;;;;;;17.40;11.98;;;2.20;99.90;;;;;;5053160;28;20249;-61
2022/11/21 11:25:58;;;;;;;19.13;12.55;;;2.20;99.90;;;;;;5053427;28;20217;-61
2022/11/21 11:28:26;;;;;;;18.00;11.57;;;2.20;99.90;;;;;;5053708;28;20272;-60
2022/11/21 11:30:54;;;;;;;17.42;11.98;;;2.20;99.90;;;;;;5053254;28;20226;-61
2022/11/21 11:33:32;;;;;;;15.05;11.23;;;2.20;99.90;;;;;;5056505;28;20220;-61
2022/11/21 11:36:13;;;;;;;16.30;10.20;;;2.30;99.90;;;;;;5051840;28;20205;-61
2022/11/21 11:38:47;;;;;;;13.20;9.38;;;2.50;99.90;;;;;;5052462;28;20630;-61
2022/11/21 11:47:29;;;;;;;13.40;10.05;;;2.50;99.90;;;;;;5064022;28;20196;-61
2022/11/21 11:47:33;;;;;;;12.40;8.98;;;2.50;99.90;;;;;;5052997;28;20196;-61
2022/11/21 11:50:14;;;;;;;13.02;8.95;;;2.40;99.90;;;;;;5052858;28;20192;-61
2022/11/21 11:52:50;;;;;;;11.75;9.00;;;2.30;99.90;;;;;;5052918;28;20716;-61
2022/11/21 11:55:21;;;;;;;12.40;8.90;;;2.20;99.90;;;;;;5052585;28;20308;-63
2022/11/21 11:57:54;;;;;;;13.88;10.10;;;2.10;99.90;;;;;;5053319;28;20197;-62
2022/11/21 12:00:30;;;;;;;12.13;8.93;;;2.00;99.90;;;;;;5053372;28;20206;-61
2022/11/21 12:03:02;;;;;;;12.00;8.45;;;2.00;99.90;;;;;;5052241;28;20208;-61
2022/11/21 12:05:31;;;;;;;13.50;8.70;;;2.00;99.90;;;;;;5053347;28;20599;-61
2022/11/21 12:08:11;;;;;;;11.70;8.23;;;2.00;99.90;;;;;;5053631;28;20279;-60
2022/11/21 12:13:29;;;;;;;9.10;7.57;;;2.10;99.90;;;;;;5052712;28;20665;-60
2022/11/21 12:15:59;;;;;;;10.32;7.70;;;2.10;99.90;;;;;;5053935;28;20202;-60
2022/11/21 12:18:33;;;;;;;11.05;7.78;;;2.10;99.90;;;;;;5052967;28;20614;-61
2022/11/21 12:21:07;;;;;;;12.68;8.13;;;2.10;99.90;;;;;;5053495;28;20177;-59
2022/11/21 12:23:39;;;;;;;10.73;7.18;;;2.10;99.90;;;;;;5053738;28;20233;-61
2022/11/21 12:26:20;;;;;;;9.05;7.70;;;2.10;99.90;;;;;;5052325;28;20194;-60
2022/11/21 12:29:00;;;;;;;9.40;7.53;;;2.20;99.90;;;;;;5052830;28;20200;-61
2022/11/21 12:31:37;;;;;;;8.77;5.80;;;2.20;99.90;;;;;;5054865;28;20205;-62
2022/11/21 12:34:11;;;;;;;7.70;6.85;;;2.30;99.90;;;;;;5054341;28;20217;-61
2022/11/21 12:36:44;;;;;;;9.20;6.40;;;2.20;99.90;;;;;;5061014;28;20665;-62
2022/11/21 12:39:58;;;;;;;9.82;6.88;;;2.20;99.90;;;;;;5062321;28;20645;-59
2022/11/21 12:42:49;;;;;;;10.40;7.38;;;2.20;99.90;;;;;;5058041;28;20182;-59
2022/11/21 12:45:30;;;;;;;8.32;6.85;;;2.20;99.90;;;;;;5057085;28;20553;-61
2022/11/21 12:55:04;;;;;;;9.43;7.95;;;2.30;99.90;;;;;;5057278;28;20224;-60
2022/11/21 12:57:43;;;;;;;11.10;8.18;;;2.30;99.90;;;;;;5042022;28;20209;-61
2022/11/21 13:00:15;;;;;;;9.20;8.20;;;2.20;99.90;;;;;;5057500;28;20233;-60
2022/11/21 13:03:11;;;;;;;13.48;8.15;;;2.20;99.90;;;;;;5057672;28;20585;-60
2022/11/21 13:05:41;;;;;;;13.52;9.35;;;2.30;99.90;;;;;;5056348;28;20243;-62
2022/11/21 13:08:13;;;;;;;10.30;8.82;;;2.30;99.90;;;;;;5056818;28;20681;-61
2022/11/21 13:10:44;;;;;;;9.60;8.52;;;2.30;99.90;;;;;;5056115;28;20196;-60
2022/11/21 13:13:19;;;;;;;12.80;8.90;;;2.40;99.90;;;;;;5067310;28;20221;-61
2022/11/21 13:15:55;;;;;;;11.52;8.55;;;2.40;99.90;;;;;;5076326;28;20184;-61
2022/11/21 13:18:29;;;;;;;8.77;7.43;;;2.30;99.90;;;;;;5076859;28;20189;-63
2022/11/21 13:20:56;;;;;;;12.25;9.88;;;2.30;99.90;;;;;;5075779;28;20441;-63